createdAt,value
2018-04-11T00:01:30.892Z,5.80
2018-04-11T00:03:58.544Z,6.47
2018-04-11T00:06:26.279Z,6.30
2018-04-11T00:08:54.181Z,5.73
2018-04-11T00:11:21.807Z,5.43
2018-04-11T00:13:49.436Z,6.07
2018-04-11T00:16:17.093Z,6.13
2018-04-11T00:18:44.715Z,5.73
2018-04-11T00:21:12.373Z,5.60
2018-04-11T00:23:39.999Z,5.53
2018-04-11T00:26:07.934Z,5.20
2018-04-11T00:28:35.669Z,5.37
2018-04-11T00:31:03.296Z,4.70
2018-04-11T00:33:30.944Z,5.70
2018-04-11T00:35:58.577Z,5.37
2018-04-11T00:38:26.215Z,5.00
2018-04-11T00:40:53.834Z,4.70
2018-04-11T00:43:21.497Z,4.43
2018-04-11T00:45:49.145Z,5.40
2018-04-11T00:48:16.771Z,5.90
2018-04-11T00:50:44.435Z,4.90
2018-04-11T00:53:32.022Z,4.03
2018-04-11T00:55:59.687Z,6.40
2018-04-11T00:58:27.323Z,4.90
2018-04-11T01:00:55.358Z,5.30
2018-04-11T01:03:22.983Z,5.60
2018-04-11T01:05:50.604Z,5.67
2018-04-11T01:08:18.252Z,5.70
2018-04-11T01:10:45.867Z,5.50
2018-04-11T01:13:13.510Z,5.53
2018-04-11T01:15:41.279Z,6.83
2018-04-11T01:18:08.907Z,7.33
2018-04-11T01:20:36.556Z,6.80
2018-04-11T01:23:04.180Z,6.33
2018-04-11T01:25:31.828Z,6.60
2018-04-11T01:27:59.529Z,7.73
2018-04-11T01:30:27.207Z,7.53
2018-04-11T01:32:54.823Z,8.07
2018-04-11T01:35:22.456Z,8.23
2018-04-11T01:37:50.099Z,8.30
2018-04-11T01:40:17.723Z,8.60
2018-04-11T01:42:45.387Z,8.60
2018-04-11T01:45:13.015Z,9.67
2018-04-11T01:47:40.859Z,9.00
2018-04-11T01:50:08.475Z,9.70
2018-04-11T01:52:36.107Z,9.40
2018-04-11T01:55:03.763Z,9.47
2018-04-11T01:57:31.388Z,9.20
2018-04-11T01:59:59.043Z,10.37
2018-04-11T02:02:26.667Z,10.50
2018-04-11T02:04:54.585Z,9.73
2018-04-11T02:07:22.216Z,12.50
2018-04-11T02:09:49.850Z,10.90
2018-04-11T02:12:17.523Z,11.50
2018-04-11T02:14:45.219Z,12.00
2018-04-11T02:17:12.871Z,11.90
2018-04-11T02:19:40.499Z,11.90
2018-04-11T02:22:08.163Z,11.70
2018-04-11T02:24:35.799Z,11.60
2018-04-11T02:27:03.429Z,12.10
2018-04-11T02:29:31.083Z,11.00
2018-04-11T02:31:58.719Z,11.83
2018-04-11T02:34:26.397Z,11.70
2018-04-11T02:36:54.037Z,12.07
2018-04-11T02:39:21.707Z,12.83
2018-04-11T02:41:49.340Z,13.40
2018-04-11T02:44:16.967Z,13.63
2018-04-11T02:46:44.620Z,14.17
2018-04-11T02:49:12.252Z,13.93
2018-04-11T02:51:39.916Z,12.63
2018-04-11T02:54:07.547Z,14.70
2018-04-11T02:56:35.491Z,12.63
2018-04-11T02:59:03.127Z,12.30
2018-04-11T03:01:30.756Z,11.20
2018-04-11T03:03:58.424Z,14.37
2018-04-11T03:06:26.132Z,13.10
2018-04-11T03:08:53.791Z,14.67
2018-04-11T03:11:21.454Z,13.50
2018-04-11T03:13:49.120Z,15.00
2018-04-11T03:16:16.742Z,14.23
2018-04-11T03:18:44.383Z,14.40
2018-04-11T03:21:12.607Z,13.03
2018-04-11T03:23:40.290Z,13.00
2018-04-11T03:26:07.943Z,13.60
2018-04-11T03:28:35.580Z,13.30
2018-04-11T03:31:03.256Z,13.53
2018-04-11T03:33:30.893Z,15.40
2018-04-11T03:35:58.540Z,14.77
2018-04-11T03:38:26.253Z,13.40
2018-04-11T03:40:53.874Z,14.37
2018-04-11T03:43:21.531Z,14.40
2018-04-11T03:45:49.238Z,14.50
2018-04-11T03:48:17.014Z,14.80
2018-04-11T03:50:44.644Z,14.50
2018-04-11T03:53:12.280Z,13.40
2018-04-11T03:55:39.950Z,14.40
2018-04-11T03:58:07.579Z,13.87
2018-04-11T04:00:35.236Z,13.77
2018-04-11T04:03:02.867Z,14.80
2018-04-11T04:05:30.524Z,12.73
2018-04-11T04:07:58.154Z,14.77
2018-04-11T04:10:25.829Z,14.27
2018-04-11T04:12:53.459Z,14.00
2018-04-11T04:15:32.835Z,13.70
2018-04-11T04:18:12.198Z,12.87
2018-04-11T04:20:40.198Z,14.40
2018-04-11T04:23:07.824Z,14.00
2018-04-11T04:25:35.463Z,15.17
2018-04-11T04:28:03.125Z,14.17
2018-04-11T04:30:30.771Z,13.40
2018-04-11T04:32:58.437Z,14.37
2018-04-11T04:35:26.070Z,13.53
2018-04-11T04:37:53.924Z,14.43
2018-04-11T04:40:21.561Z,14.63
2018-04-11T04:42:49.200Z,14.83
2018-04-11T04:45:16.852Z,12.30
2018-04-11T04:47:44.489Z,13.23
2018-04-11T04:50:12.137Z,13.80
2018-04-11T04:52:39.774Z,14.13
2018-04-11T04:55:07.446Z,15.13
2018-04-11T04:57:35.082Z,16.00
2018-04-11T05:00:02.989Z,14.27
2018-04-11T05:02:30.633Z,13.40
2018-04-11T05:04:58.272Z,13.00
2018-04-11T05:07:25.959Z,13.90
2018-04-11T05:09:53.590Z,13.57
2018-04-11T05:12:21.242Z,13.80
2018-04-11T05:14:48.951Z,14.43
2018-04-11T05:17:16.871Z,14.93
2018-04-11T05:19:44.546Z,13.13
2018-04-11T05:22:12.180Z,14.83
2018-04-11T05:24:39.848Z,14.30
2018-04-11T05:27:07.476Z,12.80
2018-04-11T05:29:35.151Z,13.33
2018-04-11T05:32:02.815Z,14.57
2018-04-11T05:34:30.976Z,13.83
2018-04-11T05:36:58.663Z,13.60
2018-04-11T05:39:26.298Z,16.10
2018-04-11T05:41:54.052Z,13.43
2018-04-11T05:44:21.688Z,13.60
2018-04-11T05:46:49.599Z,14.20
2018-04-11T05:49:17.226Z,13.73
2018-04-11T05:51:44.856Z,13.70
2018-04-11T05:54:12.505Z,14.60
2018-04-11T05:56:40.187Z,12.70
2018-04-11T05:59:08.031Z,12.90
2018-04-11T06:01:35.761Z,11.53
2018-04-11T06:04:03.388Z,13.70
2018-04-11T06:06:31.043Z,13.93
2018-04-11T06:08:58.683Z,14.03
2018-04-11T06:11:26.412Z,13.80
2018-04-11T06:13:54.042Z,13.37
2018-04-11T06:16:21.942Z,12.47
2018-04-11T06:18:49.579Z,12.17
2018-04-11T06:21:17.221Z,12.27
2018-04-11T06:23:44.876Z,11.60
2018-04-11T06:26:12.507Z,11.20
2018-04-11T06:28:40.159Z,11.50
2018-04-11T06:31:07.783Z,11.20
2018-04-11T06:33:35.803Z,10.63
2018-04-11T06:36:03.452Z,11.33
2018-04-11T06:38:31.106Z,12.33
2018-04-11T06:40:58.761Z,12.27
2018-04-11T06:43:26.397Z,12.90
2018-04-11T06:45:54.050Z,10.57
2018-04-11T06:48:21.687Z,11.50
2018-04-11T06:50:49.748Z,10.43
2018-04-11T06:53:17.377Z,12.50
2018-04-11T06:55:45.000Z,11.30
2018-04-11T06:58:12.676Z,11.47
2018-04-11T07:00:40.316Z,12.03
2018-04-11T07:03:07.980Z,12.53
2018-04-11T07:05:35.630Z,11.67
2018-04-11T07:08:03.448Z,10.10
2018-04-11T07:10:31.220Z,11.60
2018-04-11T07:12:58.852Z,12.37
2018-04-11T07:15:26.510Z,13.10
2018-04-11T07:17:54.209Z,10.83
2018-04-11T07:20:21.899Z,11.80
2018-04-11T07:22:49.529Z,12.07
2018-04-11T07:25:17.198Z,12.13
2018-04-11T07:27:44.827Z,11.60
2018-04-11T07:30:12.505Z,11.00
2018-04-11T07:32:40.147Z,10.17
2018-04-11T07:35:08.357Z,9.90
2018-04-11T07:37:36.099Z,9.43
2018-04-11T07:40:03.910Z,9.70
2018-04-11T07:42:31.875Z,9.37
2018-04-11T07:44:59.836Z,10.30
2018-04-11T07:47:29.809Z,8.67
2018-04-11T07:49:57.845Z,9.90
2018-04-11T07:52:25.652Z,10.27
2018-04-11T07:54:53.300Z,8.63
2018-04-11T07:57:20.920Z,8.13
2018-04-11T07:59:48.559Z,7.37
2018-04-11T08:02:16.196Z,9.50
2018-04-11T08:04:44.023Z,7.50
2018-04-11T08:07:11.883Z,8.80
2018-04-11T08:09:40.045Z,8.07
2018-04-11T08:12:08.030Z,9.60
2018-04-11T08:14:35.664Z,8.27
2018-04-11T08:17:03.581Z,10.03
2018-04-11T08:19:31.243Z,10.97
2018-04-11T08:22:03.960Z,9.83
2018-04-11T08:24:34.178Z,9.77
2018-04-11T08:27:02.490Z,11.10
2018-04-11T08:29:30.207Z,9.93
2018-04-11T08:32:02.296Z,10.63
2018-04-11T08:34:36.455Z,8.50
2018-04-11T08:37:10.653Z,9.30
2018-04-11T08:39:41.538Z,7.90
2018-04-11T08:42:10.189Z,8.40
2018-04-11T08:44:38.695Z,10.00
2018-04-11T08:47:08.343Z,8.20
2018-04-11T08:49:38.178Z,8.47
2018-04-11T08:52:08.021Z,7.30
2018-04-11T08:54:36.998Z,7.07
2018-04-11T08:57:05.161Z,7.40
2018-04-11T08:59:38.112Z,8.10
2018-04-11T09:02:11.878Z,6.33
2018-04-11T09:04:44.343Z,6.80
2018-04-11T09:07:18.273Z,6.50
2018-04-11T09:09:54.512Z,7.20
2018-04-11T09:12:25.010Z,7.30
2018-04-11T09:14:59.782Z,5.37
2018-04-11T09:17:36.096Z,6.50
2018-04-11T09:20:08.305Z,6.33
2018-04-11T09:22:39.212Z,7.30
2018-04-11T09:25:07.187Z,8.03
2018-04-11T09:27:35.058Z,6.30
2018-04-11T09:30:08.470Z,5.80
2018-04-11T09:32:37.690Z,5.50
2018-04-11T09:35:07.144Z,5.00
2018-04-11T09:37:36.690Z,3.03
2018-04-11T09:40:04.981Z,4.47
2018-04-11T09:42:33.351Z,5.00
2018-04-11T09:45:01.514Z,8.10
2018-04-11T09:47:29.183Z,3.00
2018-04-11T09:50:02.818Z,2.23
2018-04-11T09:52:31.932Z,2.67
2018-04-11T09:55:00.574Z,3.30
2018-04-11T09:57:28.215Z,1.73
2018-04-11T09:59:55.851Z,2.47
2018-04-11T10:02:24.321Z,1.60
2018-04-11T10:04:52.027Z,2.27
2018-04-11T10:07:19.651Z,1.40
2018-04-11T10:09:47.483Z,2.03
2018-04-11T10:12:15.493Z,3.60
2018-04-11T10:14:43.539Z,4.23
2018-04-11T10:17:14.802Z,3.93
2018-04-11T10:19:42.907Z,4.43
2018-04-11T10:22:10.552Z,3.70
2018-04-11T10:24:38.307Z,4.20
2018-04-11T10:27:05.962Z,4.07
2018-04-11T10:29:33.596Z,4.40
2018-04-11T10:32:01.317Z,4.03
2018-04-11T10:34:28.995Z,3.03
2018-04-11T10:36:56.625Z,3.40
2018-04-11T10:39:24.371Z,3.00
2018-04-11T10:41:51.998Z,3.23
2018-04-11T10:44:19.637Z,3.40
2018-04-11T10:46:47.282Z,3.00
2018-04-11T10:49:14.939Z,3.23
2018-04-11T10:51:42.583Z,3.13
2018-04-11T10:54:10.199Z,2.97
2018-04-11T10:56:37.835Z,2.83
2018-04-11T10:59:05.455Z,2.93
2018-04-11T11:01:33.135Z,3.60
2018-04-11T11:04:00.763Z,4.37
2018-04-11T11:06:28.394Z,2.93
2018-04-11T11:08:56.033Z,3.10
2018-04-11T11:11:23.683Z,3.53
2018-04-11T11:13:51.327Z,3.73
2018-04-11T11:16:20.211Z,3.50
2018-04-11T11:18:47.942Z,3.47
2018-04-11T11:21:15.628Z,2.83
2018-04-11T11:23:43.668Z,2.63
2018-04-11T11:26:11.670Z,2.80
2018-04-11T11:28:39.290Z,3.00
2018-04-11T11:31:06.937Z,2.87
2018-04-11T11:33:34.586Z,2.70
2018-04-11T11:36:02.504Z,2.20
2018-04-11T11:38:30.171Z,2.90
2018-04-11T11:40:57.795Z,2.60
2018-04-11T11:43:25.441Z,2.27
2018-04-11T11:45:53.121Z,3.10
2018-04-11T11:48:20.787Z,3.30
2018-04-11T11:50:48.689Z,2.43
2018-04-11T11:53:16.698Z,4.07
2018-04-11T11:55:44.742Z,2.87
2018-04-11T11:58:12.354Z,3.07
2018-04-11T12:00:40.205Z,2.67
2018-04-11T12:03:07.823Z,2.50
2018-04-11T12:05:35.451Z,2.30
2018-04-11T12:08:03.087Z,1.90
2018-04-11T12:10:30.755Z,2.33
2018-04-11T12:12:58.420Z,2.33
2018-04-11T12:15:26.044Z,2.80
2018-04-11T12:17:53.679Z,2.07
2018-04-11T12:20:21.319Z,2.60
2018-04-11T12:22:48.957Z,2.03
2018-04-11T12:25:18.430Z,2.30
2018-04-11T12:27:46.523Z,2.10
2018-04-11T12:30:14.156Z,2.40
2018-04-11T12:32:41.795Z,2.37
2018-04-11T12:35:09.542Z,2.03
2018-04-11T12:37:37.279Z,2.13
2018-04-11T12:40:04.907Z,2.50
2018-04-11T12:42:32.535Z,2.30
2018-04-11T12:45:00.185Z,2.03
2018-04-11T12:47:27.803Z,2.53
2018-04-11T12:49:55.808Z,2.57
2018-04-11T12:52:23.433Z,2.80
2018-04-11T12:54:51.522Z,2.90
2018-04-11T12:57:19.488Z,2.50
2018-04-11T12:59:47.456Z,2.00
2018-04-11T13:02:15.531Z,1.73
2018-04-11T13:04:43.259Z,2.73
2018-04-11T13:07:11.353Z,1.90
2018-04-11T13:09:39.126Z,2.03
2018-04-11T13:12:06.968Z,1.60
2018-04-11T13:14:35.113Z,1.97
2018-04-11T13:17:03.136Z,1.63
2018-04-11T13:19:31.011Z,1.60
2018-04-11T13:21:58.873Z,1.90
2018-04-11T13:24:26.891Z,1.53
2018-04-11T13:26:54.729Z,1.53
2018-04-11T13:29:22.779Z,1.60
2018-04-11T13:31:50.650Z,2.13
2018-04-11T13:34:19.548Z,1.37
2018-04-11T13:36:48.519Z,2.20
2018-04-11T13:39:16.140Z,1.57
2018-04-11T13:41:43.786Z,1.33
2018-04-11T13:44:11.411Z,1.60
2018-04-11T13:46:39.784Z,2.40
2018-04-11T13:49:07.425Z,3.17
2018-04-11T13:51:35.215Z,2.50
2018-04-11T13:54:03.311Z,1.30
2018-04-11T13:56:31.380Z,2.10
2018-04-11T13:59:01.451Z,1.50
2018-04-11T14:01:29.802Z,1.40
2018-04-11T14:03:57.462Z,1.70
2018-04-11T14:06:25.100Z,1.30
2018-04-11T14:08:52.724Z,1.80
2018-04-11T14:11:21.526Z,1.40
2018-04-11T14:13:49.696Z,2.43
2018-04-11T14:16:17.360Z,1.43
2018-04-11T14:18:44.991Z,2.10
2018-04-11T14:21:12.859Z,2.10
2018-04-11T14:23:40.776Z,2.00
2018-04-11T14:26:08.853Z,1.20
2018-04-11T14:28:37.024Z,2.10
2018-04-11T14:31:04.840Z,2.27
2018-04-11T14:33:32.494Z,4.43
2018-04-11T14:36:00.167Z,2.53
2018-04-11T14:38:27.864Z,2.10
2018-04-11T14:40:55.527Z,3.40
2018-04-11T14:43:23.153Z,5.33
2018-04-11T14:45:50.852Z,2.20
2018-04-11T14:48:18.503Z,2.60
2018-04-11T14:50:46.177Z,4.33
2018-04-11T14:53:13.847Z,1.87
2018-04-11T14:55:42.028Z,2.10
2018-04-11T14:58:10.007Z,5.00
2018-04-11T15:00:37.623Z,1.87
2018-04-11T15:03:05.682Z,2.63
2018-04-11T15:05:33.534Z,2.37
2018-04-11T15:08:01.187Z,1.97
2018-04-11T15:10:28.807Z,1.70
2018-04-11T15:12:56.672Z,1.63
2018-04-11T15:15:24.482Z,1.57
2018-04-11T15:17:52.565Z,1.73
2018-04-11T15:20:20.226Z,2.20
2018-04-11T15:22:47.873Z,1.80
2018-04-11T15:25:15.822Z,1.90
2018-04-11T15:27:43.898Z,1.87
2018-04-11T15:30:17.002Z,1.57
2018-04-11T15:32:45.051Z,1.40
2018-04-11T15:35:12.668Z,1.97
2018-04-11T15:37:40.326Z,1.30
2018-04-11T15:40:07.942Z,1.77
2018-04-11T15:42:35.697Z,1.40
2018-04-11T15:45:03.313Z,1.80
2018-04-11T15:47:30.974Z,2.73
2018-04-11T15:49:58.624Z,1.10
2018-04-11T15:52:26.552Z,2.87
2018-04-11T15:54:54.164Z,2.23
2018-04-11T15:57:21.780Z,2.03
2018-04-11T15:59:49.428Z,2.23
2018-04-11T16:02:17.063Z,7.40
2018-04-11T16:04:44.707Z,5.67
2018-04-11T16:07:12.433Z,9.07
2018-04-11T16:09:40.118Z,5.23
2018-04-11T16:12:07.765Z,3.00
2018-04-11T16:14:35.514Z,1.77
2018-04-11T16:17:03.154Z,2.90
2018-04-11T16:19:30.771Z,1.20
2018-04-11T16:21:58.410Z,1.30
2018-04-11T16:24:26.035Z,1.80
2018-04-11T16:26:54.161Z,1.20
2018-04-11T16:29:21.780Z,1.27
2018-04-11T16:31:49.424Z,1.33
2018-04-11T16:34:17.118Z,1.03
2018-04-11T16:36:44.739Z,1.00
2018-04-11T16:39:12.393Z,3.00
2018-04-11T16:41:40.009Z,1.37
2018-04-11T16:44:07.653Z,1.20
2018-04-11T16:46:35.279Z,1.50
2018-04-11T16:49:02.927Z,1.40
2018-04-11T16:51:30.551Z,1.23
2018-04-11T16:53:58.267Z,1.60
2018-04-11T16:56:25.891Z,1.60
2018-04-11T16:58:53.543Z,1.23
2018-04-11T17:01:21.168Z,1.37
2018-04-11T17:03:48.843Z,1.00
2018-04-11T17:06:16.465Z,0.90
2018-04-11T17:08:44.087Z,0.90
2018-04-11T17:11:12.039Z,1.00
2018-04-11T17:13:39.672Z,1.13
2018-04-11T17:16:07.340Z,0.87
2018-04-11T17:18:34.958Z,1.47
2018-04-11T17:24:20.081Z,1.40
2018-04-11T17:26:59.554Z,1.33
2018-04-11T17:29:39.120Z,1.20
2018-04-11T17:32:06.767Z,1.40
2018-04-11T17:34:34.357Z,0.87
2018-04-11T17:37:01.939Z,1.00
2018-04-11T17:39:29.559Z,0.90
2018-04-11T17:41:57.154Z,1.00
2018-04-11T17:44:24.766Z,1.10
2018-04-11T17:46:52.389Z,0.87
2018-04-11T17:49:22.252Z,0.77
2018-04-11T17:51:49.838Z,1.60
2018-04-11T17:54:17.437Z,1.10
2018-04-11T17:56:45.133Z,1.40
2018-04-11T17:59:12.725Z,1.13
2018-04-11T18:01:40.353Z,1.60
2018-04-11T18:04:07.955Z,1.20
2018-04-11T18:06:35.895Z,1.40
2018-04-11T18:09:03.514Z,2.03
2018-04-11T18:11:31.119Z,1.93
2018-04-11T18:13:58.753Z,1.43
2018-04-11T18:16:26.346Z,1.90
2018-04-11T18:18:54.095Z,1.60
2018-04-11T18:21:21.693Z,1.80
2018-04-11T18:23:49.530Z,1.50
2018-04-11T18:26:17.128Z,1.10
2018-04-11T18:28:44.964Z,1.27
2018-04-11T18:31:12.582Z,1.20
2018-04-11T18:33:40.170Z,1.40
2018-04-11T18:36:07.798Z,1.67
2018-04-11T18:38:35.395Z,1.80
2018-04-11T18:41:03.023Z,1.40
2018-04-11T18:43:30.609Z,1.43
2018-04-11T18:45:58.227Z,1.23
2018-04-11T18:48:25.853Z,1.87
2018-04-11T18:50:53.443Z,1.87
2018-04-11T18:53:21.080Z,2.37
2018-04-11T18:55:48.689Z,1.77
2018-04-11T18:58:16.415Z,1.40
2018-04-11T19:00:44.032Z,1.70
2018-04-11T19:03:11.628Z,1.70
2018-04-11T19:05:39.259Z,1.97
2018-04-11T19:08:06.845Z,2.60
2018-04-11T19:10:34.465Z,1.97
2018-04-11T19:13:02.111Z,2.43
2018-04-11T19:15:29.719Z,3.60
2018-04-11T19:17:57.327Z,2.47
2018-04-11T19:20:24.938Z,2.43
2018-04-11T19:22:52.559Z,2.30
2018-04-11T19:25:20.151Z,3.50
2018-04-11T19:27:47.766Z,3.30
2018-04-11T19:30:15.388Z,2.63
2018-04-11T19:32:43.262Z,2.27
2018-04-11T19:35:10.853Z,2.37
2018-04-11T19:37:38.462Z,2.30
2018-04-11T19:40:06.076Z,2.80
2018-04-11T19:42:33.674Z,2.90
2018-04-11T19:45:01.289Z,3.10
2018-04-11T19:47:28.892Z,3.00
2018-04-11T19:49:56.944Z,2.93
2018-04-11T19:52:24.509Z,2.97
2018-04-11T19:54:52.101Z,2.23
2018-04-11T19:57:19.716Z,2.53
2018-04-11T19:59:47.309Z,2.67
2018-04-11T20:02:14.929Z,3.03
2018-04-11T20:04:42.515Z,3.37
2018-04-11T20:07:10.177Z,3.50
2018-04-11T20:09:37.795Z,3.27
2018-04-11T20:12:05.411Z,2.60
2018-04-11T20:14:33.219Z,3.10
2018-04-11T20:17:00.813Z,3.70
2018-04-11T20:19:28.403Z,3.70
2018-04-11T20:21:56.020Z,4.40
2018-04-11T20:24:23.627Z,3.40
2018-04-11T20:26:51.250Z,4.00
2018-04-11T20:29:18.843Z,4.50
2018-04-11T20:31:46.862Z,4.60
2018-04-11T20:34:14.471Z,4.30
2018-04-11T20:36:42.070Z,5.40
2018-04-11T20:39:09.716Z,5.43
2018-04-11T20:41:37.327Z,5.60
2018-04-11T20:44:04.957Z,6.70
2018-04-11T20:46:32.559Z,6.20
2018-04-11T20:49:00.410Z,5.77
2018-04-11T20:51:28.013Z,5.57
2018-04-11T20:53:55.607Z,6.43
2018-04-11T20:56:23.222Z,5.43
2018-04-11T20:58:50.828Z,6.33
2018-04-11T21:01:18.450Z,4.87
2018-04-11T21:03:46.060Z,6.03
2018-04-11T21:06:13.705Z,6.30
2018-04-11T21:08:41.297Z,7.47
2018-04-11T21:11:08.936Z,6.07
2018-04-11T21:13:36.552Z,5.60
2018-04-11T21:16:04.174Z,6.60
2018-04-11T21:18:31.795Z,5.80
2018-04-11T21:20:59.391Z,6.40
2018-04-11T21:23:27.472Z,6.20
2018-04-11T21:25:55.072Z,6.27
2018-04-11T21:28:22.664Z,7.03
2018-04-11T21:30:50.283Z,7.90
2018-04-11T21:33:17.899Z,8.20
2018-04-11T21:35:45.522Z,8.00
2018-04-11T21:38:13.237Z,9.00
2018-04-11T21:40:41.112Z,9.10
2018-04-11T21:43:08.767Z,8.07
2018-04-11T21:45:36.364Z,8.87
2018-04-11T21:48:04.011Z,8.23
2018-04-11T21:50:31.755Z,8.10
2018-04-11T21:52:59.379Z,8.87
2018-04-11T21:55:26.983Z,7.73
2018-04-11T21:57:54.657Z,9.03
2018-04-11T22:00:22.256Z,9.80
2018-04-11T22:02:49.870Z,9.50
2018-04-11T22:05:17.512Z,8.53
2018-04-11T22:07:45.112Z,8.90
2018-04-11T22:10:12.734Z,8.77
2018-04-11T22:12:40.384Z,9.17
2018-04-11T22:15:08.200Z,8.77
2018-04-11T22:17:35.783Z,8.60
2018-04-11T22:20:03.404Z,8.27
2018-04-11T22:22:31.015Z,8.90
2018-04-11T22:24:58.631Z,9.40
2018-04-11T22:27:26.262Z,8.97
2018-04-11T22:29:53.874Z,8.90
2018-04-11T22:32:21.506Z,9.20
2018-04-11T22:34:49.095Z,9.53
2018-04-11T22:37:16.701Z,9.67
2018-04-11T22:39:44.328Z,8.43
2018-04-11T22:42:11.920Z,9.47
2018-04-11T22:44:39.538Z,8.50
2018-04-11T22:47:07.146Z,9.40
2018-04-11T22:49:34.774Z,9.93
2018-04-11T22:52:02.389Z,8.77
2018-04-11T22:54:29.991Z,8.73
2018-04-11T22:56:57.722Z,10.77
2018-04-11T22:59:25.385Z,8.60
2018-04-11T23:01:53.006Z,9.40
2018-04-11T23:04:20.598Z,9.93
2018-04-11T23:06:48.575Z,9.43
2018-04-11T23:09:16.171Z,9.23
2018-04-11T23:11:43.778Z,8.93
2018-04-11T23:14:11.401Z,8.90
2018-04-11T23:16:39.009Z,9.60
2018-04-11T23:19:06.667Z,9.53
2018-04-11T23:21:34.268Z,9.30
2018-04-11T23:24:01.943Z,9.00
2018-04-11T23:26:29.542Z,8.80
2018-04-11T23:28:57.142Z,10.97
2018-04-11T23:31:24.754Z,9.20
2018-04-11T23:33:52.351Z,10.07
2018-04-11T23:36:19.972Z,10.73
2018-04-11T23:38:47.564Z,9.80
2018-04-11T23:41:15.184Z,9.50
2018-04-11T23:43:42.780Z,9.57
2018-04-11T23:46:10.560Z,9.77
2018-04-11T23:48:38.163Z,9.50
2018-04-11T23:51:05.758Z,8.37
2018-04-11T23:53:33.383Z,9.23
2018-04-11T23:56:00.976Z,9.17
2018-04-11T23:58:28.598Z,9.70
